Huvudsida
METAR-TAF:

METAR-TAF

Flygplatser :

Port Vila, Efate, Vanuatu

latitud: 17-42S, longitud: 168-18E, höjd: 20 m

Aktuellt väderrapport

Denna rapport gjordes för 24 minuter sedan, klockan 05:00 UTC
Vind 7 kt från ost/nordost
Temperatur 28°C
Fuktighet 70%
Tryck 1009 hPa
Sikt 10 km eller mer
Spridda moln på en höjd av 2000 ft
Mulet på en höjd av 11000 ft

METAR: NVVV 290500Z 06007KT 9999 SCT020 OVC110 28/22 Q1009

Tid: 16:24 (05:24 UTC)

Väderprognos

Denna rapport gjordes för 7 timmar och 4 minuter sedan, klockan 22:20 UTC
Prognos gäller från 29 kl. 00 UTC till 29 kl. 24 UTC
Vind 10 kt från ost
Sikt 10 km eller mer
Spridda moln på en höjd av 2000 ft
Sannolikhet 40%
mellan IN och TE UTC
Sikt: 9000 m
Brutna moln på en höjd av 1800 ft
lätta regnskurar

TAF: NVVV 282220Z 2900/2924 10010KT 9999 SCT020 PROB40 INTER 2900/2903 9000 -SHRA BKN018

Aktuella väderrapporter och prognoser från 4000 flygplatser (METAR- och TAF-rapporter).

De tillgängliga stationerna syns som gula och röda prickar på kartan.

För musen över prickarna för att se namnen på stationerna.

Klicka sedan för att få väderrapporter och prognoser.

För att ändra kartan: Klicka på de gröna knapparna med ett svart kors på för att zooma in; den gröna knappen med ett streck på för att zooma ut; eller på de gröna pilarna för angränsande kartor.


METAR-TAF: